sensor_id;sensor_type;location;lat;lon;timestamp;pressure;altitude;pressure_sealevel;temperature;humidity
40708;BME280;26392;42.696;23.350;2023-04-25T00:01:37;94590.34;;;11.75;100.00
40708;BME280;26392;42.696;23.350;2023-04-25T00:04:03;94582.97;;;11.76;100.00
40708;BME280;26392;42.696;23.350;2023-04-25T00:06:31;94581.31;;;11.80;100.00
40708;BME280;26392;42.696;23.350;2023-04-25T00:08:57;94570.66;;;11.83;100.00
40708;BME280;26392;42.696;23.350;2023-04-25T00:11:23;94566.56;;;11.86;100.00
40708;BME280;26392;42.696;23.350;2023-04-25T00:13:49;94549.94;;;11.88;100.00
40708;BME280;26392;42.696;23.350;2023-04-25T00:16:16;94537.63;;;11.85;100.00
40708;BME280;26392;42.696;23.350;2023-04-25T00:18:42;94539.28;;;11.86;100.00
40708;BME280;26392;42.696;23.350;2023-04-25T00:21:07;94537.09;;;11.88;100.00
40708;BME280;26392;42.696;23.350;2023-04-25T00:23:33;94526.19;;;11.83;100.00
40708;BME280;26392;42.696;23.350;2023-04-25T00:26:02;94528.09;;;11.82;100.00
40708;BME280;26392;42.696;23.350;2023-04-25T00:28:27;94535.97;;;11.84;100.00
40708;BME280;26392;42.696;23.350;2023-04-25T00:30:53;94533.25;;;11.84;100.00
40708;BME280;26392;42.696;23.350;2023-04-25T00:33:18;94518.81;;;11.78;100.00
40708;BME280;26392;42.696;23.350;2023-04-25T00:35:43;94521.03;;;11.76;100.00
40708;BME280;26392;42.696;23.350;2023-04-25T00:38:09;94511.78;;;11.67;100.00
40708;BME280;26392;42.696;23.350;2023-04-25T00:40:35;94536.31;;;11.72;100.00
40708;BME280;26392;42.696;23.350;2023-04-25T00:43:00;94528.72;;;11.64;100.00
40708;BME280;26392;42.696;23.350;2023-04-25T00:45:29;94529.06;;;11.52;100.00
40708;BME280;26392;42.696;23.350;2023-04-25T00:47:55;94521.72;;;11.42;100.00
40708;BME280;26392;42.696;23.350;2023-04-25T00:50:20;94533.50;;;11.38;100.00
40708;BME280;26392;42.696;23.350;2023-04-25T00:52:46;94520.66;;;11.38;100.00
40708;BME280;26392;42.696;23.350;2023-04-25T00:55:12;94533.50;;;11.33;100.00
40708;BME280;26392;42.696;23.350;2023-04-25T00:57:38;94535.44;;;11.27;100.00
40708;BME280;26392;42.696;23.350;2023-04-25T01:00:06;94540.91;;;11.22;100.00
40708;BME280;26392;42.696;23.350;2023-04-25T01:02:33;94534.69;;;11.06;100.00
40708;BME280;26392;42.696;23.350;2023-04-25T01:05:00;94531.44;;;10.99;100.00
40708;BME280;26392;42.696;23.350;2023-04-25T01:07:26;94535.78;;;10.95;100.00
40708;BME280;26392;42.696;23.350;2023-04-25T01:09:52;94519.97;;;11.07;100.00
40708;BME280;26392;42.696;23.350;2023-04-25T01:12:17;94512.66;;;10.87;100.00
40708;BME280;26392;42.696;23.350;2023-04-25T01:14:43;94508.84;;;10.78;100.00
40708;BME280;26392;42.696;23.350;2023-04-25T01:17:09;94505.91;;;10.64;100.00
40708;BME280;26392;42.696;23.350;2023-04-25T01:19:34;94489.31;;;10.50;100.00
40708;BME280;26392;42.696;23.350;2023-04-25T01:22:00;94495.84;;;10.49;100.00
40708;BME280;26392;42.696;23.350;2023-04-25T01:24:26;94496.09;;;10.63;100.00
40708;BME280;26392;42.696;23.350;2023-04-25T01:26:52;94489.56;;;10.54;100.00
40708;BME280;26392;42.696;23.350;2023-04-25T01:29:21;94487.97;;;10.48;100.00
40708;BME280;26392;42.696;23.350;2023-04-25T01:31:46;94496.94;;;10.38;100.00
40708;BME280;26392;42.696;23.350;2023-04-25T01:34:12;94490.38;;;10.24;100.00
40708;BME280;26392;42.696;23.350;2023-04-25T01:36:38;94489.28;;;10.25;100.00
40708;BME280;26392;42.696;23.350;2023-04-25T01:39:04;94489.28;;;10.25;100.00
40708;BME280;26392;42.696;23.350;2023-04-25T01:41:30;94491.75;;;10.21;100.00
40708;BME280;26392;42.696;23.350;2023-04-25T01:43:56;94498.84;;;10.17;100.00
40708;BME280;26392;42.696;23.350;2023-04-25T01:46:22;94492.00;;;10.25;100.00
40708;BME280;26392;42.696;23.350;2023-04-25T01:48:47;94476.50;;;10.20;100.00
40708;BME280;26392;42.696;23.350;2023-04-25T01:51:13;94496.41;;;10.31;100.00
40708;BME280;26392;42.696;23.350;2023-04-25T01:53:39;94490.41;;;10.29;100.00
40708;BME280;26392;42.696;23.350;2023-04-25T01:56:05;94503.75;;;10.30;100.00
40708;BME280;26392;42.696;23.350;2023-04-25T01:58:30;94506.75;;;10.34;100.00
40708;BME280;26392;42.696;23.350;2023-04-25T02:00:56;94502.66;;;10.32;100.00
40708;BME280;26392;42.696;23.350;2023-04-25T02:03:21;94501.28;;;10.44;100.00
40708;BME280;26392;42.696;23.350;2023-04-25T02:05:47;94499.66;;;10.43;100.00
40708;BME280;26392;42.696;23.350;2023-04-25T02:08:13;94491.50;;;10.48;100.00
40708;BME280;26392;42.696;23.350;2023-04-25T02:10:38;94502.91;;;10.56;100.00
40708;BME280;26392;42.696;23.350;2023-04-25T02:13:04;94490.94;;;10.62;100.00
40708;BME280;26392;42.696;23.350;2023-04-25T02:15:30;94484.13;;;10.64;100.00
40708;BME280;26392;42.696;23.350;2023-04-25T02:17:56;94483.00;;;10.65;100.00
40708;BME280;26392;42.696;23.350;2023-04-25T02:20:22;94486.84;;;10.59;100.00
40708;BME280;26392;42.696;23.350;2023-04-25T02:22:48;94480.31;;;10.55;100.00
40708;BME280;26392;42.696;23.350;2023-04-25T02:25:14;94467.50;;;10.56;100.00
40708;BME280;26392;42.696;23.350;2023-04-25T02:27:41;94466.97;;;10.43;100.00
40708;BME280;26392;42.696;23.350;2023-04-25T02:30:07;94467.00;;;10.38;100.00
40708;BME280;26392;42.696;23.350;2023-04-25T02:32:33;94466.72;;;10.35;100.00
40708;BME280;26392;42.696;23.350;2023-04-25T02:35:00;94463.72;;;10.36;100.00
40708;BME280;26392;42.696;23.350;2023-04-25T02:37:30;94456.94;;;10.34;100.00
40708;BME280;26392;42.696;23.350;2023-04-25T02:39:55;94452.00;;;10.30;100.00
40708;BME280;26392;42.696;23.350;2023-04-25T02:42:20;94447.38;;;10.26;100.00
40708;BME280;26392;42.696;23.350;2023-04-25T02:44:46;94455.53;;;10.26;100.00
40708;BME280;26392;42.696;23.350;2023-04-25T02:47:11;94450.91;;;10.21;100.00
40708;BME280;26392;42.696;23.350;2023-04-25T02:49:36;94455.28;;;10.27;100.00
40708;BME280;26392;42.696;23.350;2023-04-25T02:52:02;94446.84;;;10.29;100.00
40708;BME280;26392;42.696;23.350;2023-04-25T02:54:27;94442.75;;;10.26;100.00
40708;BME280;26392;42.696;23.350;2023-04-25T02:56:53;94449.28;;;10.15;100.00
40708;BME280;26392;42.696;23.350;2023-04-25T02:59:18;94449.56;;;10.08;100.00
40708;BME280;26392;42.696;23.350;2023-04-25T03:01:43;94446.03;;;10.03;100.00
40708;BME280;26392;42.696;23.350;2023-04-25T03:04:09;94448.22;;;10.11;100.00
40708;BME280;26392;42.696;23.350;2023-04-25T03:06:34;94458.28;;;10.00;100.00
40708;BME280;26392;42.696;23.350;2023-04-25T03:09:00;94446.59;;;10.00;100.00
40708;BME280;26392;42.696;23.350;2023-04-25T03:11:25;94440.31;;;9.99;100.00
40708;BME280;26392;42.696;23.350;2023-04-25T03:13:51;94437.31;;;9.91;100.00
40708;BME280;26392;42.696;23.350;2023-04-25T03:16:16;94441.41;;;10.03;100.00
40708;BME280;26392;42.696;23.350;2023-04-25T03:18:41;94424.81;;;9.84;100.00
40708;BME280;26392;42.696;23.350;2023-04-25T03:21:07;94449.00;;;9.91;100.00
40708;BME280;26392;42.696;23.350;2023-04-25T03:23:32;94448.50;;;9.89;100.00
40708;BME280;26392;42.696;23.350;2023-04-25T03:25:58;94444.13;;;9.93;100.00
40708;BME280;26392;42.696;23.350;2023-04-25T03:28:23;94439.22;;;9.95;100.00
40708;BME280;26392;42.696;23.350;2023-04-25T03:30:48;94451.75;;;9.86;100.00
40708;BME280;26392;42.696;23.350;2023-04-25T03:33:14;94445.22;;;9.87;100.00
40708;BME280;26392;42.696;23.350;2023-04-25T03:35:39;94438.69;;;9.78;100.00
40708;BME280;26392;42.696;23.350;2023-04-25T03:38:05;94438.94;;;9.81;100.00
40708;BME280;26392;42.696;23.350;2023-04-25T03:40:30;94445.78;;;9.89;100.00
40708;BME280;26392;42.696;23.350;2023-04-25T03:42:56;94449.31;;;9.95;100.00
40708;BME280;26392;42.696;23.350;2023-04-25T03:45:21;94445.19;;;10.02;100.00
40708;BME280;26392;42.696;23.350;2023-04-25T03:47:46;94440.59;;;10.03;100.00
40708;BME280;26392;42.696;23.350;2023-04-25T03:50:12;94445.19;;;10.02;100.00
40708;BME280;26392;42.696;23.350;2023-04-25T03:52:37;94436.22;;;10.12;100.00
40708;BME280;26392;42.696;23.350;2023-04-25T03:55:03;94440.88;;;10.27;100.00
40708;BME280;26392;42.696;23.350;2023-04-25T03:57:29;94437.88;;;10.28;100.00
40708;BME280;26392;42.696;23.350;2023-04-25T03:59:55;94440.88;;;10.17;100.00
40708;BME280;26392;42.696;23.350;2023-04-25T04:02:20;94441.94;;;10.21;100.00
40708;BME280;26392;42.696;23.350;2023-04-25T04:04:46;94450.34;;;10.50;100.00
40708;BME280;26392;42.696;23.350;2023-04-25T04:07:11;94461.13;;;11.01;100.00
40708;BME280;26392;42.696;23.350;2023-04-25T04:09:36;94455.22;;;11.38;100.00
40708;BME280;26392;42.696;23.350;2023-04-25T04:12:02;94459.31;;;11.80;100.00
40708;BME280;26392;42.696;23.350;2023-04-25T04:14:28;94461.69;;;12.31;100.00
40708;BME280;26392;42.696;23.350;2023-04-25T04:16:53;94443.56;;;12.70;100.00
40708;BME280;26392;42.696;23.350;2023-04-25T04:19:18;94445.13;;;12.76;100.00
40708;BME280;26392;42.696;23.350;2023-04-25T04:21:44;94438.03;;;12.75;100.00
40708;BME280;26392;42.696;23.350;2023-04-25T04:24:09;94430.13;;;12.73;100.00
40708;BME280;26392;42.696;23.350;2023-04-25T04:26:35;94455.38;;;12.89;100.00
40708;BME280;26392;42.696;23.350;2023-04-25T04:29:02;94441.69;;;12.65;100.00
40708;BME280;26392;42.696;23.350;2023-04-25T04:31:28;94445.63;;;12.83;100.00
40708;BME280;26392;42.696;23.350;2023-04-25T04:33:53;94446.00;;;12.95;100.00
40708;BME280;26392;42.696;23.350;2023-04-25T04:36:19;94446.38;;;12.89;100.00
40708;BME280;26392;42.696;23.350;2023-04-25T04:38:47;94431.91;;;12.59;100.00
40708;BME280;26392;42.696;23.350;2023-04-25T04:41:12;94439.94;;;12.21;100.00
40708;BME280;26392;42.696;23.350;2023-04-25T04:43:37;94438.63;;;12.14;100.00
40708;BME280;26392;42.696;23.350;2023-04-25T04:46:04;94442.34;;;11.94;100.00
40708;BME280;26392;42.696;23.350;2023-04-25T04:48:33;94440.34;;;12.04;100.00
40708;BME280;26392;42.696;23.350;2023-04-25T04:50:59;94455.81;;;12.14;100.00
40708;BME280;26392;42.696;23.350;2023-04-25T04:53:25;94460.88;;;11.97;100.00
40708;BME280;26392;42.696;23.350;2023-04-25T04:55:50;94469.75;;;12.13;100.00
40708;BME280;26392;42.696;23.350;2023-04-25T04:58:16;94448.75;;;12.13;100.00
40708;BME280;26392;42.696;23.350;2023-04-25T05:00:41;94458.69;;;11.99;100.00
40708;BME280;26392;42.696;23.350;2023-04-25T05:03:07;94461.41;;;11.99;100.00
40708;BME280;26392;42.696;23.350;2023-04-25T05:05:32;94470.66;;;12.03;100.00
40708;BME280;26392;42.696;23.350;2023-04-25T05:07:59;94474.59;;;12.21;100.00
40708;BME280;26392;42.696;23.350;2023-04-25T05:10:25;94465.19;;;12.03;100.00
40708;BME280;26392;42.696;23.350;2023-04-25T05:12:50;94486.47;;;12.06;100.00
40708;BME280;26392;42.696;23.350;2023-04-25T05:15:16;94488.81;;;12.18;100.00
40708;BME280;26392;42.696;23.350;2023-04-25T05:17:41;94476.28;;;11.72;100.00
40708;BME280;26392;42.696;23.350;2023-04-25T05:20:08;94468.81;;;11.49;100.00
40708;BME280;26392;42.696;23.350;2023-04-25T05:22:36;94456.53;;;11.51;100.00
40708;BME280;26392;42.696;23.350;2023-04-25T05:25:01;94476.28;;;11.72;100.00
40708;BME280;26392;42.696;23.350;2023-04-25T05:27:27;94468.09;;;11.77;100.00
40708;BME280;26392;42.696;23.350;2023-04-25T05:29:52;94481.16;;;11.85;100.00
40708;BME280;26392;42.696;23.350;2023-04-25T05:32:18;94486.03;;;11.94;100.00
40708;BME280;26392;42.696;23.350;2023-04-25T05:34:43;94472.94;;;11.91;100.00
40708;BME280;26392;42.696;23.350;2023-04-25T05:37:08;94477.75;;;12.04;100.00
40708;BME280;26392;42.696;23.350;2023-04-25T05:39:34;94481.22;;;12.15;100.00
40708;BME280;26392;42.696;23.350;2023-04-25T05:41:59;94456.38;;;12.16;100.00
40708;BME280;26392;42.696;23.350;2023-04-25T05:44:26;94464.78;;;12.49;100.00
40708;BME280;26392;42.696;23.350;2023-04-25T05:46:51;94447.50;;;12.59;100.00
40708;BME280;26392;42.696;23.350;2023-04-25T05:49:17;94462.13;;;12.73;100.00
40708;BME280;26392;42.696;23.350;2023-04-25T05:51:42;94465.25;;;12.61;100.00
40708;BME280;26392;42.696;23.350;2023-04-25T05:54:08;94469.44;;;12.77;100.00
40708;BME280;26392;42.696;23.350;2023-04-25T05:56:33;94467.59;;;12.97;100.00
40708;BME280;26392;42.696;23.350;2023-04-25T05:58:58;94468.47;;;13.16;100.00
40708;BME280;26392;42.696;23.350;2023-04-25T06:01:24;94472.25;;;13.20;100.00
40708;BME280;26392;42.696;23.350;2023-04-25T06:03:49;94460.91;;;13.08;100.00
40708;BME280;26392;42.696;23.350;2023-04-25T06:06:16;94467.94;;;13.14;100.00
40708;BME280;26392;42.696;23.350;2023-04-25T06:08:42;94450.88;;;13.28;100.00
40708;BME280;26392;42.696;23.350;2023-04-25T06:11:07;94456.84;;;13.30;100.00
40708;BME280;26392;42.696;23.350;2023-04-25T06:13:32;94472.47;;;13.48;100.00
40708;BME280;26392;42.696;23.350;2023-04-25T06:15:58;94468.44;;;13.64;100.00
40708;BME280;26392;42.696;23.350;2023-04-25T06:18:23;94464.66;;;13.60;100.00
40708;BME280;26392;42.696;23.350;2023-04-25T06:20:49;94452.28;;;13.63;100.00
40708;BME280;26392;42.696;23.350;2023-04-25T06:23:14;94463.19;;;13.68;100.00
40708;BME280;26392;42.696;23.350;2023-04-25T06:25:39;94467.53;;;13.69;100.00
40708;BME280;26392;42.696;23.350;2023-04-25T06:28:05;94468.94;;;13.66;100.00
40708;BME280;26392;42.696;23.350;2023-04-25T06:30:30;94459.59;;;13.25;100.00
40708;BME280;26392;42.696;23.350;2023-04-25T06:32:56;94480.97;;;13.47;100.00
40708;BME280;26392;42.696;23.350;2023-04-25T06:35:21;94473.66;;;13.61;100.00
40708;BME280;26392;42.696;23.350;2023-04-25T06:37:47;94469.38;;;13.55;100.00
40708;BME280;26392;42.696;23.350;2023-04-25T06:40:12;94470.78;;;13.71;100.00
40708;BME280;26392;42.696;23.350;2023-04-25T06:42:38;94470.66;;;13.81;100.00
40708;BME280;26392;42.696;23.350;2023-04-25T06:45:03;94469.25;;;13.84;100.00
40708;BME280;26392;42.696;23.350;2023-04-25T06:47:29;94468.81;;;13.96;100.00
40708;BME280;26392;42.696;23.350;2023-04-25T06:49:55;94479.50;;;14.30;100.00
40708;BME280;26392;42.696;23.350;2023-04-25T06:52:20;94471.19;;;14.54;100.00
40708;BME280;26392;42.696;23.350;2023-04-25T06:54:46;94475.31;;;14.70;100.00
40708;BME280;26392;42.696;23.350;2023-04-25T06:57:11;94478.50;;;15.05;100.00
40708;BME280;26392;42.696;23.350;2023-04-25T06:59:37;94480.81;;;15.39;100.00
40708;BME280;26392;42.696;23.350;2023-04-25T07:02:02;94473.09;;;15.55;100.00
40708;BME280;26392;42.696;23.350;2023-04-25T07:04:28;94464.63;;;15.65;100.00
40708;BME280;26392;42.696;23.350;2023-04-25T07:06:54;94472.03;;;15.93;100.00
40708;BME280;26392;42.696;23.350;2023-04-25T07:09:20;94480.34;;;16.01;100.00
40708;BME280;26392;42.696;23.350;2023-04-25T07:11:45;94475.44;;;16.12;100.00
40708;BME280;26392;42.696;23.350;2023-04-25T07:14:11;94477.16;;;16.22;100.00
40708;BME280;26392;42.696;23.350;2023-04-25T07:16:36;94476.06;;;16.09;100.00
40708;BME280;26392;42.696;23.350;2023-04-25T07:19:02;94477.84;;;15.91;100.00
40708;BME280;26392;42.696;23.350;2023-04-25T07:21:27;94479.69;;;15.82;100.00
40708;BME280;26392;42.696;23.350;2023-04-25T07:23:52;94467.81;;;15.59;100.00
40708;BME280;26392;42.696;23.350;2023-04-25T07:26:18;94464.06;;;15.41;100.00
40708;BME280;26392;42.696;23.350;2023-04-25T07:28:43;94459.69;;;15.26;100.00
40708;BME280;26392;42.696;23.350;2023-04-25T07:31:09;94468.63;;;15.45;100.00
40708;BME280;26392;42.696;23.350;2023-04-25T07:33:35;94461.94;;;15.52;100.00
40708;BME280;26392;42.696;23.350;2023-04-25T07:36:00;94469.81;;;15.67;100.00
40708;BME280;26392;42.696;23.350;2023-04-25T07:38:26;94466.16;;;15.85;100.00
40708;BME280;26392;42.696;23.350;2023-04-25T07:40:51;94460.84;;;16.25;100.00
40708;BME280;26392;42.696;23.350;2023-04-25T07:43:17;94458.59;;;16.50;100.00
40708;BME280;26392;42.696;23.350;2023-04-25T07:45:43;94453.78;;;16.78;100.00
40708;BME280;26392;42.696;23.350;2023-04-25T07:48:09;94456.75;;;17.21;100.00
40708;BME280;26392;42.696;23.350;2023-04-25T07:50:35;94446.09;;;17.29;100.00
40708;BME280;26392;42.696;23.350;2023-04-25T07:53:00;94449.72;;;17.55;100.00
40708;BME280;26392;42.696;23.350;2023-04-25T07:55:25;94438.69;;;17.55;100.00
40708;BME280;26392;42.696;23.350;2023-04-25T07:57:51;94444.72;;;17.57;100.00
40708;BME280;26392;42.696;23.350;2023-04-25T08:00:17;94448.28;;;17.58;97.94
40708;BME280;26392;42.696;23.350;2023-04-25T08:02:42;94441.16;;;17.57;98.01
40708;BME280;26392;42.696;23.350;2023-04-25T08:05:08;94447.38;;;17.22;100.00
40708;BME280;26392;42.696;23.350;2023-04-25T08:07:37;94446.41;;;17.36;100.00
40708;BME280;26392;42.696;23.350;2023-04-25T08:10:02;94445.94;;;17.34;98.48
40708;BME280;26392;42.696;23.350;2023-04-25T08:12:28;94445.94;;;17.34;99.29
40708;BME280;26392;42.696;23.350;2023-04-25T08:14:53;94440.50;;;17.51;99.41
40708;BME280;26392;42.696;23.350;2023-04-25T08:17:19;94442.75;;;17.49;96.37
40708;BME280;26392;42.696;23.350;2023-04-25T08:19:44;94440.88;;;17.76;95.81
40708;BME280;26392;42.696;23.350;2023-04-25T08:22:09;94429.91;;;18.10;87.15
40708;BME280;26392;42.696;23.350;2023-04-25T08:24:35;94422.59;;;17.88;89.46
40708;BME280;26392;42.696;23.350;2023-04-25T08:27:00;94426.31;;;17.84;87.27
40708;BME280;26392;42.696;23.350;2023-04-25T08:29:26;94414.97;;;18.20;82.46
40708;BME280;26392;42.696;23.350;2023-04-25T08:31:51;94419.47;;;18.51;81.31
40708;BME280;26392;42.696;23.350;2023-04-25T08:34:18;94417.38;;;18.74;83.35
40708;BME280;26392;42.696;23.350;2023-04-25T08:36:43;94420.41;;;18.72;87.66
40708;BME280;26392;42.696;23.350;2023-04-25T08:39:09;94421.56;;;18.54;81.95
40708;BME280;26392;42.696;23.350;2023-04-25T08:41:36;94436.88;;;18.17;83.28
40708;BME280;26392;42.696;23.350;2023-04-25T08:44:03;94445.94;;;17.34;98.60
40708;BME280;26392;42.696;23.350;2023-04-25T08:46:30;94456.97;;;16.49;100.00
40708;BME280;26392;42.696;23.350;2023-04-25T08:49:00;94448.16;;;15.79;100.00
40708;BME280;26392;42.696;23.350;2023-04-25T08:51:31;94455.50;;;15.42;100.00
40708;BME280;26392;42.696;23.350;2023-04-25T08:54:06;94447.41;;;15.24;100.00
40708;BME280;26392;42.696;23.350;2023-04-25T08:56:33;94441.00;;;15.00;100.00
40708;BME280;26392;42.696;23.350;2023-04-25T08:59:01;94444.44;;;15.06;100.00
40708;BME280;26392;42.696;23.350;2023-04-25T09:01:27;94437.16;;;15.02;100.00
40708;BME280;26392;42.696;23.350;2023-04-25T09:03:52;94425.03;;;15.30;100.00
40708;BME280;26392;42.696;23.350;2023-04-25T09:06:19;94416.38;;;15.37;100.00
40708;BME280;26392;42.696;23.350;2023-04-25T09:08:45;94425.13;;;15.53;100.00
40708;BME280;26392;42.696;23.350;2023-04-25T09:11:12;94418.31;;;16.00;100.00
40708;BME280;26392;42.696;23.350;2023-04-25T09:13:38;94419.72;;;16.43;100.00
40708;BME280;26392;42.696;23.350;2023-04-25T09:16:04;94411.50;;;16.74;100.00
40708;BME280;26392;42.696;23.350;2023-04-25T09:18:31;94400.91;;;16.81;100.00
40708;BME280;26392;42.696;23.350;2023-04-25T09:21:07;94400.25;;;17.33;100.00
40708;BME280;26392;42.696;23.350;2023-04-25T09:23:39;94397.75;;;17.62;100.00
40708;BME280;26392;42.696;23.350;2023-04-25T09:26:07;94399.75;;;17.79;93.59
40708;BME280;26392;42.696;23.350;2023-04-25T09:28:32;94403.41;;;17.75;88.84
40708;BME280;26392;42.696;23.350;2023-04-25T09:31:00;94396.84;;;17.93;83.59
40708;BME280;26392;42.696;23.350;2023-04-25T09:33:31;94390.66;;;18.05;92.68
40708;BME280;26392;42.696;23.350;2023-04-25T09:36:09;94390.81;;;18.34;84.92
40708;BME280;26392;42.696;23.350;2023-04-25T09:38:45;94394.81;;;18.63;81.26
40708;BME280;26392;42.696;23.350;2023-04-25T09:41:11;94394.28;;;18.78;80.19
40708;BME280;26392;42.696;23.350;2023-04-25T09:43:38;94393.56;;;19.08;83.66
40708;BME280;26392;42.696;23.350;2023-04-25T09:46:08;94382.75;;;19.23;76.86
40708;BME280;26392;42.696;23.350;2023-04-25T09:48:34;94379.91;;;19.11;73.44
40708;BME280;26392;42.696;23.350;2023-04-25T09:51:07;94385.16;;;18.95;85.25
40708;BME280;26392;42.696;23.350;2023-04-25T09:53:37;94394.13;;;18.84;71.64
40708;BME280;26392;42.696;23.350;2023-04-25T09:56:08;94389.13;;;18.77;73.68
40708;BME280;26392;42.696;23.350;2023-04-25T09:58:35;94401.44;;;18.71;82.39
40708;BME280;26392;42.696;23.350;2023-04-25T10:01:03;94401.63;;;18.74;78.16
40708;BME280;26392;42.696;23.350;2023-04-25T10:03:30;94407.31;;;18.52;77.38
40708;BME280;26392;42.696;23.350;2023-04-25T10:05:59;94395.03;;;18.32;80.07
40708;BME280;26392;42.696;23.350;2023-04-25T10:08:29;94389.47;;;17.62;86.25
40708;BME280;26392;42.696;23.350;2023-04-25T10:10:59;94393.19;;;17.49;89.53
40708;BME280;26392;42.696;23.350;2023-04-25T10:13:25;94390.78;;;17.56;86.70
40708;BME280;26392;42.696;23.350;2023-04-25T10:15:52;94377.28;;;17.37;86.22
40708;BME280;26392;42.696;23.350;2023-04-25T10:18:17;94378.78;;;17.70;87.40
40708;BME280;26392;42.696;23.350;2023-04-25T10:20:45;94379.16;;;17.94;82.36
40708;BME280;26392;42.696;23.350;2023-04-25T10:23:14;94398.44;;;18.11;81.69
40708;BME280;26392;42.696;23.350;2023-04-25T10:25:41;94398.94;;;18.05;97.62
40708;BME280;26392;42.696;23.350;2023-04-25T10:28:07;94383.03;;;17.76;100.00
40708;BME280;26392;42.696;23.350;2023-04-25T10:30:32;94377.09;;;17.25;88.06
40708;BME280;26392;42.696;23.350;2023-04-25T10:32:58;94383.91;;;17.36;100.00
40708;BME280;26392;42.696;23.350;2023-04-25T10:35:25;94376.66;;;17.40;90.25
40708;BME280;26392;42.696;23.350;2023-04-25T10:38:04;94402.88;;;17.38;82.44
40708;BME280;26392;42.696;23.350;2023-04-25T10:40:34;94417.81;;;16.21;83.20
40708;BME280;26392;42.696;23.350;2023-04-25T10:45:53;94409.53;;;15.62;91.33
40708;BME280;26392;42.696;23.350;2023-04-25T10:48:29;94392.88;;;15.72;87.94
40708;BME280;26392;42.696;23.350;2023-04-25T10:53:33;94384.13;;;15.93;95.83
40708;BME280;26392;42.696;23.350;2023-04-25T10:55:59;94392.84;;;16.08;92.59
40708;BME280;26392;42.696;23.350;2023-04-25T10:58:25;94390.66;;;16.19;93.15
40708;BME280;26392;42.696;23.350;2023-04-25T11:00:51;94387.69;;;16.16;89.55
40708;BME280;26392;42.696;23.350;2023-04-25T11:03:17;94382.03;;;16.12;95.82
40708;BME280;26392;42.696;23.350;2023-04-25T11:05:44;94381.50;;;16.10;92.57
40708;BME280;26392;42.696;23.350;2023-04-25T11:08:11;94380.81;;;16.04;92.14
40708;BME280;26392;42.696;23.350;2023-04-25T11:10:40;94389.97;;;16.14;91.78
40708;BME280;26392;42.696;23.350;2023-04-25T11:13:06;94377.16;;;16.09;93.63
40708;BME280;26392;42.696;23.350;2023-04-25T11:15:31;94370.03;;;16.08;97.26
40708;BME280;26392;42.696;23.350;2023-04-25T11:17:57;94356.91;;;16.27;90.05
40708;BME280;26392;42.696;23.350;2023-04-25T11:20:25;94363.09;;;16.33;82.95
40708;BME280;26392;42.696;23.350;2023-04-25T11:22:51;94353.97;;;16.24;81.82
40708;BME280;26392;42.696;23.350;2023-04-25T11:25:17;94361.13;;;16.02;69.05
40708;BME280;26392;42.696;23.350;2023-04-25T11:27:52;94362.44;;;16.05;70.54
40708;BME280;26392;42.696;23.350;2023-04-25T11:30:19;94360.66;;;16.09;70.38
40708;BME280;26392;42.696;23.350;2023-04-25T11:32:45;94353.09;;;16.15;71.74
40708;BME280;26392;42.696;23.350;2023-04-25T11:35:10;94346.00;;;16.14;70.47
40708;BME280;26392;42.696;23.350;2023-04-25T11:37:36;94357.84;;;16.23;71.61
40708;BME280;26392;42.696;23.350;2023-04-25T11:40:05;94366.16;;;16.31;72.06
40708;BME280;26392;42.696;23.350;2023-04-25T11:42:32;94366.19;;;16.40;71.62
40708;BME280;26392;42.696;23.350;2023-04-25T11:44:58;94375.03;;;16.28;71.11
40708;BME280;26392;42.696;23.350;2023-04-25T11:47:32;94367.06;;;16.27;76.54
40708;BME280;26392;42.696;23.350;2023-04-25T11:49:58;94359.47;;;16.24;78.17
40708;BME280;26392;42.696;23.350;2023-04-25T11:52:34;94373.84;;;16.21;91.07
40708;BME280;26392;42.696;23.350;2023-04-25T11:55:00;94358.72;;;16.09;79.00
40708;BME280;26392;42.696;23.350;2023-04-25T11:57:25;94355.25;;;15.95;85.42
40708;BME280;26392;42.696;23.350;2023-04-25T11:59:51;94363.94;;;16.11;89.95
40708;BME280;26392;42.696;23.350;2023-04-25T12:02:25;94351.34;;;16.41;94.90
40708;BME280;26392;42.696;23.350;2023-04-25T12:04:51;94354.88;;;16.73;85.44
40708;BME280;26392;42.696;23.350;2023-04-25T12:07:17;94339.31;;;17.08;87.03
40708;BME280;26392;42.696;23.350;2023-04-25T12:09:51;94337.75;;;17.42;81.60
40708;BME280;26392;42.696;23.350;2023-04-25T12:12:17;94321.13;;;17.64;75.50
40708;BME280;26392;42.696;23.350;2023-04-25T12:14:46;94338.97;;;17.93;74.14
40708;BME280;26392;42.696;23.350;2023-04-25T12:17:13;94338.75;;;18.24;67.31
40708;BME280;26392;42.696;23.350;2023-04-25T12:19:39;94341.16;;;18.43;68.04
40708;BME280;26392;42.696;23.350;2023-04-25T12:22:19;94344.19;;;18.76;63.29
40708;BME280;26392;42.696;23.350;2023-04-25T12:24:46;94333.91;;;18.86;66.47
40708;BME280;26392;42.696;23.350;2023-04-25T12:27:14;94340.75;;;19.09;59.44
40708;BME280;26392;42.696;23.350;2023-04-25T12:29:56;94347.31;;;18.96;60.30
40708;BME280;26392;42.696;23.350;2023-04-25T12:32:22;94347.59;;;18.56;62.77
40708;BME280;26392;42.696;23.350;2023-04-25T12:34:47;94405.06;;;18.28;66.50
40708;BME280;26392;42.696;23.350;2023-04-25T12:37:13;94404.94;;;16.52;93.29
40708;BME280;26392;42.696;23.350;2023-04-25T12:39:39;94414.50;;;14.96;100.00
40708;BME280;26392;42.696;23.350;2023-04-25T12:42:05;94419.25;;;13.59;100.00
40708;BME280;26392;42.696;23.350;2023-04-25T12:44:32;94424.22;;;12.66;100.00